createdAt,value
2022-07-26T00:00:42.563Z,964.28
2022-07-26T00:01:42.818Z,964.32
2022-07-26T00:02:48.191Z,964.31
2022-07-26T00:03:42.500Z,964.31
2022-07-26T00:04:42.304Z,964.34
2022-07-26T00:05:42.434Z,964.39
2022-07-26T00:06:42.234Z,964.38
2022-07-26T00:07:42.247Z,964.38
2022-07-26T00:08:42.160Z,964.43
2022-07-26T00:09:47.782Z,964.45
2022-07-26T00:10:42.267Z,964.45
2022-07-26T00:11:42.116Z,964.53
2022-07-26T00:12:42.075Z,964.55
2022-07-26T00:13:41.967Z,964.46
2022-07-26T00:14:42.102Z,964.57
2022-07-26T00:15:42.103Z,964.54
2022-07-26T00:16:41.945Z,964.58
2022-07-26T00:17:41.904Z,964.62
2022-07-26T00:18:41.783Z,964.57
2022-07-26T00:19:41.946Z,964.64
2022-07-26T00:20:41.708Z,964.66
2022-07-26T00:21:41.674Z,964.74
2022-07-26T00:22:41.742Z,964.68
2022-07-26T00:23:41.796Z,964.71
2022-07-26T00:24:41.753Z,964.72
2022-07-26T00:25:41.522Z,964.78
2022-07-26T00:26:41.480Z,964.68
2022-07-26T00:27:41.446Z,964.69
2022-07-26T00:28:41.574Z,964.66
2022-07-26T00:29:41.373Z,964.63
2022-07-26T00:30:41.385Z,964.64
2022-07-26T00:31:41.415Z,964.67
2022-07-26T00:32:41.254Z,964.65
2022-07-26T00:33:41.415Z,964.72
2022-07-26T00:34:41.271Z,964.63
2022-07-26T00:35:41.239Z,964.59
2022-07-26T00:36:41.829Z,964.60
2022-07-26T00:37:41.232Z,964.67
2022-07-26T00:38:41.253Z,964.59
2022-07-26T00:39:41.003Z,964.56
2022-07-26T00:40:41.058Z,964.63
2022-07-26T00:41:40.913Z,964.67
2022-07-26T00:42:41.072Z,964.60
2022-07-26T00:43:40.835Z,964.58
2022-07-26T00:44:40.885Z,964.57
2022-07-26T00:45:40.770Z,964.59
2022-07-26T00:46:41.163Z,964.56
2022-07-26T00:47:40.681Z,964.60
2022-07-26T00:48:40.746Z,964.60
2022-07-26T00:49:40.706Z,964.58
2022-07-26T00:50:40.576Z,964.65
2022-07-26T00:51:40.722Z,964.56
2022-07-26T00:52:40.516Z,964.55
2022-07-26T00:53:40.530Z,964.51
2022-07-26T00:54:40.417Z,964.56
2022-07-26T00:55:40.395Z,964.57
2022-07-26T00:56:40.556Z,964.51
2022-07-26T00:57:40.293Z,964.49
2022-07-26T00:58:40.564Z,964.52
2022-07-26T00:59:40.224Z,964.51
2022-07-26T01:00:41.395Z,964.52
2022-07-26T01:01:40.284Z,964.52
2022-07-26T01:02:40.253Z,964.56
2022-07-26T01:03:40.150Z,964.57
2022-07-26T01:04:40.198Z,964.55
2022-07-26T01:05:39.995Z,964.60
2022-07-26T01:06:39.960Z,964.61
2022-07-26T01:07:39.918Z,964.65
2022-07-26T01:08:40.022Z,964.62
2022-07-26T01:09:39.839Z,964.61
2022-07-26T01:10:40.242Z,964.59
2022-07-26T01:11:39.761Z,964.62
2022-07-26T01:12:39.749Z,964.58
2022-07-26T01:13:39.692Z,964.59
2022-07-26T01:14:39.872Z,964.59
2022-07-26T01:15:39.693Z,964.59
2022-07-26T01:16:39.927Z,964.57
2022-07-26T01:17:39.532Z,964.54
2022-07-26T01:18:39.498Z,964.53
2022-07-26T01:19:39.694Z,964.57
2022-07-26T01:20:39.434Z,964.56
2022-07-26T01:21:39.504Z,964.53
2022-07-26T01:22:39.557Z,964.58
2022-07-26T01:23:39.519Z,964.59
2022-07-26T01:24:39.265Z,964.58
2022-07-26T01:25:43.754Z,964.62
2022-07-26T01:26:39.185Z,964.66
2022-07-26T01:27:39.629Z,964.63
2022-07-26T01:28:39.141Z,964.64
2022-07-26T01:29:39.086Z,964.61
2022-07-26T01:30:39.040Z,964.58
2022-07-26T01:31:39.250Z,964.58
2022-07-26T01:32:39.472Z,964.56
2022-07-26T01:33:38.981Z,964.61
2022-07-26T01:34:39.040Z,964.62
2022-07-26T01:35:39.032Z,964.63
2022-07-26T01:36:39.572Z,964.61
2022-07-26T01:37:38.787Z,964.61
2022-07-26T01:38:38.803Z,964.66
2022-07-26T01:39:38.690Z,964.63
2022-07-26T01:40:38.823Z,964.62
2022-07-26T01:41:38.878Z,964.59
2022-07-26T01:42:38.634Z,964.58
2022-07-26T01:43:38.546Z,964.59
2022-07-26T01:44:38.642Z,964.59
2022-07-26T01:45:38.555Z,964.62
2022-07-26T01:46:38.437Z,964.59
2022-07-26T01:47:38.436Z,964.60
2022-07-26T01:48:38.616Z,964.58
2022-07-26T01:49:38.311Z,964.64
2022-07-26T01:50:38.382Z,964.62
2022-07-26T01:51:38.242Z,964.64
2022-07-26T01:52:38.194Z,964.72
2022-07-26T01:53:38.245Z,964.67
2022-07-26T01:54:38.209Z,964.69
2022-07-26T01:55:38.086Z,964.69
2022-07-26T01:56:38.225Z,964.72
2022-07-26T01:57:38.109Z,964.70
2022-07-26T01:58:37.960Z,964.67
2022-07-26T01:59:38.039Z,964.69
2022-07-26T02:00:37.894Z,964.68
2022-07-26T02:01:40.126Z,964.69
2022-07-26T02:02:37.901Z,964.66
2022-07-26T02:03:37.861Z,964.68
2022-07-26T02:04:37.740Z,964.63
2022-07-26T02:05:38.085Z,964.66
2022-07-26T02:06:37.818Z,964.68
2022-07-26T02:07:37.702Z,964.72
2022-07-26T02:08:37.581Z,964.70
2022-07-26T02:09:39.685Z,964.73
2022-07-26T02:10:37.514Z,964.69
2022-07-26T02:11:37.521Z,964.71
2022-07-26T02:12:37.589Z,964.74
2022-07-26T02:13:37.537Z,964.68
2022-07-26T02:14:37.356Z,964.71
2022-07-26T02:15:37.379Z,964.73
2022-07-26T02:16:39.397Z,964.73
2022-07-26T02:17:45.809Z,964.70
2022-07-26T02:18:46.334Z,964.73
2022-07-26T02:20:02.875Z,964.76
2022-07-26T02:20:46.799Z,964.75
2022-07-26T02:21:45.952Z,964.76
2022-07-26T02:22:45.483Z,964.71
2022-07-26T02:23:45.030Z,964.75
2022-07-26T02:24:36.995Z,964.69
2022-07-26T02:25:49.556Z,964.70
2022-07-26T02:28:21.877Z,964.67
2022-07-26T02:29:15.113Z,964.70
2022-07-26T02:30:21.418Z,964.67
2022-07-26T02:31:15.586Z,964.71
2022-07-26T02:32:21.236Z,964.72
2022-07-26T02:33:44.996Z,964.70
2022-07-26T02:34:21.526Z,964.74
2022-07-26T02:35:21.555Z,964.72
2022-07-26T02:36:22.594Z,964.72
2022-07-26T02:37:21.136Z,964.68
2022-07-26T02:38:21.182Z,964.70
2022-07-26T02:39:21.226Z,964.71
2022-07-26T02:40:21.746Z,964.70
2022-07-26T02:41:21.785Z,964.66
2022-07-26T02:42:21.322Z,964.73
2022-07-26T02:43:13.374Z,964.74
2022-07-26T02:44:13.120Z,964.74
2022-07-26T02:45:13.182Z,964.72
2022-07-26T02:46:13.085Z,964.71
2022-07-26T02:47:13.193Z,964.75
2022-07-26T02:48:12.963Z,964.73
2022-07-26T02:49:13.062Z,964.72
2022-07-26T02:50:12.892Z,964.70
2022-07-26T02:51:13.224Z,964.72
2022-07-26T02:52:12.849Z,964.71
2022-07-26T02:53:12.833Z,964.72
2022-07-26T02:54:12.729Z,964.70
2022-07-26T02:55:12.846Z,964.70
2022-07-26T02:56:12.652Z,964.71
2022-07-26T02:57:12.855Z,964.73
2022-07-26T02:58:12.710Z,964.72
2022-07-26T02:59:12.669Z,964.76
2022-07-26T03:00:12.507Z,964.71
2022-07-26T03:01:12.730Z,964.73
2022-07-26T03:02:12.424Z,964.68
2022-07-26T03:03:12.547Z,964.67
2022-07-26T03:04:12.390Z,964.66
2022-07-26T03:05:12.510Z,964.68
2022-07-26T03:06:12.263Z,964.66
2022-07-26T03:07:12.227Z,964.66
2022-07-26T03:08:12.188Z,964.67
2022-07-26T03:09:12.335Z,964.65
2022-07-26T03:10:12.187Z,964.70
2022-07-26T03:11:12.369Z,964.72
2022-07-26T03:12:12.052Z,964.70
2022-07-26T03:13:11.990Z,964.70
2022-07-26T03:14:12.108Z,964.64
2022-07-26T03:15:11.962Z,964.66
2022-07-26T03:16:11.955Z,964.65
2022-07-26T03:17:11.983Z,964.66
2022-07-26T03:18:12.032Z,964.65
2022-07-26T03:19:11.771Z,964.64
2022-07-26T03:20:11.798Z,964.66
2022-07-26T03:21:11.689Z,964.70
2022-07-26T03:22:11.810Z,964.65
2022-07-26T03:23:11.666Z,964.68
2022-07-26T03:24:12.013Z,964.69
2022-07-26T03:25:11.526Z,964.70
2022-07-26T03:26:11.633Z,964.64
2022-07-26T03:27:11.468Z,964.69
2022-07-26T03:28:14.701Z,964.65
2022-07-26T03:29:11.376Z,964.68
2022-07-26T03:30:11.661Z,964.67
2022-07-26T03:31:11.329Z,964.68
2022-07-26T03:32:11.471Z,964.67
2022-07-26T03:33:11.230Z,964.69
2022-07-26T03:34:11.485Z,964.71
2022-07-26T03:35:11.158Z,964.69
2022-07-26T03:36:11.582Z,964.70
2022-07-26T03:37:11.066Z,964.67
2022-07-26T03:38:11.108Z,964.69
2022-07-26T03:39:10.991Z,964.63
2022-07-26T03:40:11.118Z,964.63
2022-07-26T03:41:13.480Z,964.66
2022-07-26T03:42:10.881Z,964.67
2022-07-26T03:43:10.841Z,964.66
2022-07-26T03:44:11.425Z,964.67
2022-07-26T03:45:10.760Z,964.71
2022-07-26T03:46:11.002Z,964.70
2022-07-26T03:47:10.812Z,964.68
2022-07-26T03:48:10.649Z,964.72
2022-07-26T03:49:16.410Z,964.76
2022-07-26T03:50:10.565Z,964.72
2022-07-26T03:51:10.585Z,964.76
2022-07-26T03:52:10.504Z,964.70
2022-07-26T03:53:10.617Z,964.68
2022-07-26T03:54:10.630Z,964.68
2022-07-26T03:55:10.618Z,964.69
2022-07-26T03:56:10.335Z,964.67
2022-07-26T03:57:10.451Z,964.63
2022-07-26T03:58:10.249Z,964.65
2022-07-26T03:59:10.501Z,964.64
2022-07-26T04:00:10.177Z,964.63
2022-07-26T04:01:10.270Z,964.66
2022-07-26T04:02:10.130Z,964.62
2022-07-26T04:03:11.312Z,964.68
2022-07-26T04:04:10.429Z,964.66
2022-07-26T04:05:10.005Z,964.67
2022-07-26T04:06:10.094Z,964.67
2022-07-26T04:07:09.902Z,964.68
2022-07-26T04:08:10.108Z,964.66
2022-07-26T04:09:09.827Z,964.67
2022-07-26T04:10:09.910Z,964.66
2022-07-26T04:11:09.972Z,964.64
2022-07-26T04:12:10.955Z,964.62
2022-07-26T04:13:09.680Z,964.65
2022-07-26T04:14:10.224Z,964.65
2022-07-26T04:15:09.598Z,964.66
2022-07-26T04:16:09.557Z,964.69
2022-07-26T04:17:09.629Z,964.68
2022-07-26T04:18:09.558Z,964.66
2022-07-26T04:19:09.447Z,964.69
2022-07-26T04:20:09.570Z,964.67
2022-07-26T04:21:09.386Z,964.62
2022-07-26T04:22:09.435Z,964.62
2022-07-26T04:23:11.154Z,964.61
2022-07-26T04:24:09.711Z,964.60
2022-07-26T04:25:09.208Z,964.65
2022-07-26T04:26:09.408Z,964.62
2022-07-26T04:27:09.265Z,964.64
2022-07-26T04:28:09.109Z,964.65
2022-07-26T04:29:09.065Z,964.65
2022-07-26T04:30:14.415Z,964.66
2022-07-26T04:31:09.041Z,964.72
2022-07-26T04:32:09.036Z,964.73
2022-07-26T04:33:08.920Z,964.75
2022-07-26T04:34:09.491Z,964.74
2022-07-26T04:35:08.819Z,964.77
2022-07-26T04:36:09.897Z,964.77
2022-07-26T04:37:08.757Z,964.77
2022-07-26T04:38:09.899Z,964.79
2022-07-26T04:39:09.095Z,964.85
2022-07-26T04:40:08.626Z,964.84
2022-07-26T04:41:08.694Z,964.85
2022-07-26T04:42:08.620Z,964.84
2022-07-26T04:43:10.081Z,964.84
2022-07-26T04:44:08.703Z,964.84
2022-07-26T04:45:08.811Z,964.88
2022-07-26T04:46:08.490Z,964.91
2022-07-26T04:47:08.429Z,964.86
2022-07-26T04:48:08.487Z,964.88
2022-07-26T04:49:08.517Z,964.89
2022-07-26T04:50:08.233Z,964.87
2022-07-26T04:51:08.195Z,964.87
2022-07-26T04:52:08.262Z,964.81
2022-07-26T04:53:08.150Z,964.82
2022-07-26T04:54:08.595Z,964.82
2022-07-26T04:55:08.025Z,964.83
2022-07-26T04:56:07.987Z,964.83
2022-07-26T04:57:07.947Z,964.86
2022-07-26T04:58:08.107Z,964.89
2022-07-26T04:59:10.215Z,964.90
2022-07-26T05:00:24.283Z,964.88
2022-07-26T05:01:10.293Z,964.89
2022-07-26T05:02:07.875Z,964.86
2022-07-26T05:03:07.861Z,964.88
2022-07-26T05:04:08.244Z,964.90
2022-07-26T05:05:07.627Z,964.88
2022-07-26T05:06:07.650Z,964.93
2022-07-26T05:07:07.545Z,964.94
2022-07-26T05:08:07.506Z,964.96
2022-07-26T05:09:07.672Z,964.94
2022-07-26T05:10:07.523Z,964.94
2022-07-26T05:11:08.511Z,964.91
2022-07-26T05:12:07.350Z,964.94
2022-07-26T05:13:07.496Z,964.93
2022-07-26T05:14:07.572Z,964.95
2022-07-26T05:15:13.651Z,964.94
2022-07-26T05:16:11.884Z,964.95
2022-07-26T05:17:09.055Z,964.97
2022-07-26T05:18:08.939Z,964.95
2022-07-26T05:19:07.062Z,964.96
2022-07-26T05:20:07.018Z,964.94
2022-07-26T05:21:07.348Z,964.97
2022-07-26T05:22:07.020Z,964.98
2022-07-26T05:23:07.159Z,964.99
2022-07-26T05:24:07.749Z,964.99
2022-07-26T05:25:06.825Z,964.94
2022-07-26T05:26:06.785Z,965.00
2022-07-26T05:27:06.982Z,965.00
2022-07-26T05:28:06.701Z,964.99
2022-07-26T05:29:06.800Z,965.02
2022-07-26T05:30:06.646Z,964.99
2022-07-26T05:31:06.653Z,965.01
2022-07-26T05:32:06.625Z,964.98
2022-07-26T05:33:06.685Z,964.97
2022-07-26T05:34:06.895Z,964.98
2022-07-26T05:35:06.447Z,964.93
2022-07-26T05:36:06.658Z,964.96
2022-07-26T05:37:06.350Z,964.98
2022-07-26T05:38:06.462Z,964.99
2022-07-26T05:39:06.524Z,964.97
2022-07-26T05:40:06.482Z,964.96
2022-07-26T05:41:06.177Z,964.94
2022-07-26T05:42:06.134Z,964.93
2022-07-26T05:43:06.149Z,964.91
2022-07-26T05:44:06.541Z,964.90
2022-07-26T05:45:13.906Z,964.89
2022-07-26T05:47:39.031Z,964.90
2022-07-26T05:48:40.678Z,964.94
2022-07-26T05:49:40.100Z,964.90
2022-07-26T05:50:31.239Z,964.91
2022-07-26T05:51:31.201Z,964.89
2022-07-26T05:52:31.159Z,964.95
2022-07-26T05:53:31.129Z,964.92
2022-07-26T05:54:31.083Z,964.94
2022-07-26T05:55:31.055Z,964.98
2022-07-26T05:56:31.015Z,964.98
2022-07-26T05:57:30.967Z,965.02
2022-07-26T05:58:30.921Z,965.02
2022-07-26T05:59:30.880Z,965.00
2022-07-26T06:03:59.255Z,965.08
2022-07-26T06:04:57.213Z,965.10
2022-07-26T06:05:47.986Z,965.11
2022-07-26T06:06:47.945Z,965.09
2022-07-26T06:07:47.903Z,965.12
2022-07-26T06:08:47.861Z,965.11
2022-07-26T06:09:47.897Z,965.17
2022-07-26T06:10:47.778Z,965.14
2022-07-26T06:11:47.738Z,965.13
2022-07-26T06:12:47.698Z,965.14
2022-07-26T06:13:47.662Z,965.17
2022-07-26T06:14:47.618Z,965.17
2022-07-26T06:15:47.633Z,965.18
2022-07-26T06:16:47.595Z,965.25
2022-07-26T06:17:47.498Z,965.22
2022-07-26T06:18:47.464Z,965.19
2022-07-26T06:19:47.847Z,965.24
2022-07-26T06:20:47.381Z,965.20
2022-07-26T06:21:47.354Z,965.24
2022-07-26T06:22:47.296Z,965.30
2022-07-26T06:23:47.254Z,965.27
2022-07-26T06:24:47.242Z,965.27
2022-07-26T06:25:47.187Z,965.25
2022-07-26T06:26:47.139Z,965.21
2022-07-26T06:27:47.123Z,965.27
2022-07-26T06:28:47.060Z,965.25
2022-07-26T06:29:47.049Z,965.28
2022-07-26T06:30:46.983Z,965.24
2022-07-26T06:31:47.009Z,965.28
2022-07-26T06:32:46.896Z,965.32
2022-07-26T06:33:46.887Z,965.31
2022-07-26T06:34:46.819Z,965.34
2022-07-26T06:35:46.779Z,965.35
2022-07-26T06:36:46.740Z,965.40
2022-07-26T06:37:46.705Z,965.36
2022-07-26T06:38:46.665Z,965.34
2022-07-26T06:39:46.680Z,965.38
2022-07-26T06:40:46.593Z,965.36
2022-07-26T06:41:46.548Z,965.35
2022-07-26T06:42:46.505Z,965.33
2022-07-26T06:43:46.483Z,965.39
2022-07-26T06:44:46.428Z,965.36
2022-07-26T06:45:46.473Z,965.38
2022-07-26T06:46:46.353Z,965.41
2022-07-26T06:47:46.311Z,965.41
2022-07-26T06:48:47.285Z,965.38
2022-07-26T06:49:46.235Z,965.37
2022-07-26T06:50:46.192Z,965.43
2022-07-26T06:51:46.255Z,965.43
2022-07-26T06:52:48.055Z,965.39
2022-07-26T06:53:46.077Z,965.35
2022-07-26T06:54:46.038Z,965.40
2022-07-26T06:55:46.030Z,965.38
2022-07-26T06:56:45.987Z,965.37
2022-07-26T06:57:50.046Z,965.35
2022-07-26T06:58:45.913Z,965.35
2022-07-26T06:59:45.840Z,965.33
2022-07-26T07:00:45.854Z,965.40
2022-07-26T07:01:57.912Z,965.40
2022-07-26T07:02:45.757Z,965.38
2022-07-26T07:03:45.689Z,965.41
2022-07-26T07:04:45.670Z,965.40
2022-07-26T07:05:49.797Z,965.38
2022-07-26T07:06:45.573Z,965.36
2022-07-26T07:07:45.530Z,965.38
2022-07-26T07:08:45.507Z,965.38
2022-07-26T07:09:45.458Z,965.42
2022-07-26T07:10:45.412Z,965.37
2022-07-26T07:11:45.373Z,965.38
2022-07-26T07:12:45.334Z,965.37
2022-07-26T07:13:45.296Z,965.42
2022-07-26T07:14:45.283Z,965.41
2022-07-26T07:15:45.224Z,965.38
2022-07-26T07:16:45.265Z,965.41
2022-07-26T07:17:45.147Z,965.37
2022-07-26T07:18:45.104Z,965.41
2022-07-26T07:19:45.064Z,965.36
2022-07-26T07:20:45.040Z,965.38
2022-07-26T07:21:44.989Z,965.40
2022-07-26T07:22:44.954Z,965.32
2022-07-26T07:23:44.924Z,965.34
2022-07-26T07:24:44.875Z,965.32
2022-07-26T07:25:45.064Z,965.29
2022-07-26T07:26:44.799Z,965.33
2022-07-26T07:27:44.762Z,965.27
2022-07-26T07:28:44.724Z,965.29
2022-07-26T07:29:44.689Z,965.34
2022-07-26T07:30:44.652Z,965.34
2022-07-26T07:31:48.151Z,965.37
2022-07-26T07:32:44.642Z,965.37
2022-07-26T07:33:53.407Z,965.38
2022-07-26T07:34:44.498Z,965.37
2022-07-26T07:35:44.463Z,965.37
2022-07-26T07:36:44.435Z,965.39
2022-07-26T07:37:52.722Z,965.41
2022-07-26T07:38:44.351Z,965.41
2022-07-26T07:39:44.338Z,965.40
2022-07-26T07:40:44.272Z,965.40
2022-07-26T07:41:45.355Z,965.42
2022-07-26T07:42:44.201Z,965.39
2022-07-26T07:43:44.160Z,965.41
2022-07-26T07:44:44.127Z,965.41
2022-07-26T07:45:44.266Z,965.45
2022-07-26T07:46:44.112Z,965.46
2022-07-26T07:47:44.019Z,965.44
2022-07-26T07:48:47.577Z,965.46
2022-07-26T07:49:43.938Z,965.48
2022-07-26T07:50:43.902Z,965.46
2022-07-26T07:51:43.892Z,965.52
2022-07-26T07:52:43.832Z,965.48
2022-07-26T07:53:43.799Z,965.49
2022-07-26T07:54:43.756Z,965.47
2022-07-26T07:55:46.522Z,965.46
2022-07-26T07:56:43.679Z,965.40
2022-07-26T07:57:43.663Z,965.45
2022-07-26T07:58:43.609Z,965.39
2022-07-26T07:59:43.570Z,965.42
2022-07-26T08:00:43.574Z,965.44
2022-07-26T08:01:43.568Z,965.36
2022-07-26T08:02:43.460Z,965.43
2022-07-26T08:03:43.485Z,965.39
2022-07-26T08:04:43.443Z,965.37
2022-07-26T08:05:43.346Z,965.36
2022-07-26T08:06:43.324Z,965.33
2022-07-26T08:07:43.278Z,965.39
2022-07-26T08:08:43.239Z,965.36
2022-07-26T08:09:43.331Z,965.34
2022-07-26T08:10:49.167Z,965.35
2022-07-26T08:11:43.147Z,965.41
2022-07-26T08:12:43.091Z,965.40
2022-07-26T08:13:47.545Z,965.41
2022-07-26T08:14:43.017Z,965.42
2022-07-26T08:15:42.983Z,965.42
2022-07-26T08:16:43.026Z,965.43
2022-07-26T08:17:42.941Z,965.44
2022-07-26T08:18:56.068Z,965.47
2022-07-26T08:19:42.838Z,965.53
2022-07-26T08:20:42.816Z,965.51
2022-07-26T08:21:42.763Z,965.48
2022-07-26T08:22:42.735Z,965.50
2022-07-26T08:23:42.704Z,965.55
2022-07-26T08:24:42.659Z,965.54
2022-07-26T08:25:55.195Z,965.54
2022-07-26T08:26:42.587Z,965.56
2022-07-26T08:27:43.415Z,965.54
2022-07-26T08:28:47.804Z,965.59
2022-07-26T08:29:42.476Z,965.51
2022-07-26T08:30:42.455Z,965.52
2022-07-26T08:31:42.505Z,965.52
2022-07-26T08:32:42.370Z,965.56
2022-07-26T08:33:46.430Z,965.50
2022-07-26T08:34:42.297Z,965.49
2022-07-26T08:35:42.304Z,965.50
2022-07-26T08:37:06.881Z,965.52
2022-07-26T08:37:42.192Z,965.51
2022-07-26T08:38:50.282Z,965.53
2022-07-26T08:39:42.265Z,965.56
2022-07-26T08:40:42.091Z,965.53
2022-07-26T08:41:42.278Z,965.52
2022-07-26T08:42:42.020Z,965.55
2022-07-26T08:43:45.222Z,965.53
2022-07-26T08:44:42.352Z,965.53
2022-07-26T08:45:42.123Z,965.54
2022-07-26T08:46:41.956Z,965.47
2022-07-26T08:48:00.663Z,965.52
2022-07-26T08:48:41.944Z,965.47
2022-07-26T08:49:41.771Z,965.49
2022-07-26T08:50:41.936Z,965.49
2022-07-26T08:51:41.699Z,965.53
2022-07-26T08:52:41.949Z,965.52
2022-07-26T08:53:41.626Z,965.52
2022-07-26T08:54:41.597Z,965.53
2022-07-26T08:56:41.843Z,965.53
2022-07-26T08:57:41.588Z,965.59
2022-07-26T08:58:41.451Z,965.54
2022-07-26T08:59:41.409Z,965.62
2022-07-26T09:00:41.479Z,965.62
2022-07-26T09:01:41.826Z,965.58
2022-07-26T09:02:41.301Z,965.56
2022-07-26T09:03:41.530Z,965.56
2022-07-26T09:04:44.377Z,965.57
2022-07-26T09:05:41.193Z,965.58
2022-07-26T09:06:41.157Z,965.57
2022-07-26T09:07:41.470Z,965.57
2022-07-26T09:08:41.089Z,965.60
2022-07-26T09:09:41.266Z,965.61
2022-07-26T09:10:41.025Z,965.55
2022-07-26T09:11:43.118Z,965.67
2022-07-26T09:12:41.153Z,965.67
2022-07-26T09:13:42.106Z,965.66
2022-07-26T09:14:40.886Z,965.72
2022-07-26T09:15:42.122Z,965.80
2022-07-26T09:17:01.992Z,965.68
2022-07-26T09:17:48.834Z,965.69
2022-07-26T09:19:02.004Z,965.70
2022-07-26T09:19:40.720Z,965.71
2022-07-26T09:20:40.922Z,965.70
2022-07-26T09:21:40.644Z,965.67
2022-07-26T09:22:40.628Z,965.70
2022-07-26T09:23:40.945Z,965.62
2022-07-26T09:24:40.541Z,965.68
2022-07-26T09:25:41.780Z,965.69
2022-07-26T09:26:40.475Z,965.59
2022-07-26T09:27:40.437Z,965.65
2022-07-26T09:28:45.288Z,965.66
2022-07-26T09:29:40.585Z,965.85
2022-07-26T09:30:40.342Z,965.81
2022-07-26T09:31:40.668Z,965.98
2022-07-26T09:32:40.273Z,965.91
2022-07-26T09:33:40.249Z,966.00
2022-07-26T09:34:51.818Z,965.83
2022-07-26T09:35:51.354Z,965.95
2022-07-26T09:36:40.431Z,966.03
2022-07-26T09:37:40.123Z,965.85
2022-07-26T09:38:40.247Z,965.84
2022-07-26T09:39:40.057Z,965.71
2022-07-26T09:40:40.247Z,965.68
2022-07-26T09:41:40.205Z,965.85
2022-07-26T09:42:40.262Z,965.77
2022-07-26T09:43:39.934Z,965.70
2022-07-26T09:44:47.919Z,965.72
2022-07-26T09:45:39.876Z,965.73
2022-07-26T09:46:41.130Z,965.72
2022-07-26T09:47:40.141Z,965.76
2022-07-26T09:49:40.596Z,965.73
2022-07-26T09:50:39.754Z,965.77
2022-07-26T09:51:39.706Z,965.73
2022-07-26T09:52:39.923Z,965.73
2022-07-26T09:53:39.787Z,965.74
2022-07-26T09:54:39.736Z,965.69
2022-07-26T09:55:44.724Z,965.73
2022-07-26T09:56:39.534Z,965.74
2022-07-26T09:57:39.757Z,965.72
2022-07-26T09:58:39.477Z,965.72
2022-07-26T09:59:39.566Z,965.74
2022-07-26T10:00:39.620Z,965.73
2022-07-26T10:01:39.421Z,965.72
2022-07-26T10:02:39.384Z,965.72
2022-07-26T10:03:39.595Z,965.69
2022-07-26T10:04:39.281Z,965.70
2022-07-26T10:05:39.421Z,965.71
2022-07-26T10:06:39.244Z,965.72
2022-07-26T10:07:39.190Z,965.71
2022-07-26T10:08:39.427Z,965.70
2022-07-26T10:09:39.112Z,965.69
2022-07-26T10:10:39.243Z,965.72
2022-07-26T10:11:39.046Z,965.73
2022-07-26T10:12:39.298Z,965.75
2022-07-26T10:13:38.986Z,965.77
2022-07-26T10:14:39.091Z,965.77
2022-07-26T10:15:38.981Z,965.85
2022-07-26T10:16:39.074Z,965.82
2022-07-26T10:17:38.850Z,965.78
2022-07-26T10:18:39.156Z,966.02
2022-07-26T10:19:41.397Z,965.84
2022-07-26T10:20:38.744Z,965.76
2022-07-26T10:21:38.906Z,965.71
2022-07-26T10:22:38.963Z,965.77
2022-07-26T10:23:38.645Z,965.89
2022-07-26T10:24:38.615Z,965.81
2022-07-26T10:25:38.727Z,965.76
2022-07-26T10:26:38.553Z,965.76
2022-07-26T10:27:38.744Z,965.64
2022-07-26T10:28:38.520Z,965.64
2022-07-26T10:29:38.462Z,965.66
2022-07-26T10:30:38.563Z,965.64
2022-07-26T10:31:38.454Z,965.59
2022-07-26T10:32:38.577Z,965.69
2022-07-26T10:33:38.330Z,965.88
2022-07-26T10:34:38.589Z,965.99
2022-07-26T10:35:38.265Z,966.00
2022-07-26T10:36:38.404Z,966.00
2022-07-26T10:37:38.202Z,966.03
2022-07-26T10:38:38.414Z,966.04
2022-07-26T10:39:38.138Z,966.02
2022-07-26T10:40:38.145Z,965.65
2022-07-26T10:41:38.093Z,965.63
2022-07-26T10:42:38.237Z,965.80
2022-07-26T10:43:40.996Z,965.76
2022-07-26T10:44:38.254Z,965.80
2022-07-26T10:45:38.109Z,965.96
2022-07-26T10:46:38.055Z,965.81
2022-07-26T10:47:38.278Z,965.78
2022-07-26T10:48:37.931Z,965.97
2022-07-26T10:49:38.113Z,965.84
2022-07-26T10:50:37.851Z,965.56
2022-07-26T10:51:38.922Z,965.63
2022-07-26T10:52:37.793Z,965.62
2022-07-26T10:53:37.921Z,965.60
2022-07-26T10:54:37.722Z,965.56
2022-07-26T10:55:37.926Z,965.55
2022-07-26T10:56:37.655Z,965.58
2022-07-26T10:57:37.625Z,965.60
2022-07-26T10:58:37.831Z,965.58
2022-07-26T10:59:55.326Z,965.60
2022-07-26T11:00:37.539Z,965.57
2022-07-26T11:01:37.784Z,965.54
2022-07-26T11:02:37.512Z,965.52
2022-07-26T11:03:38.922Z,965.51
2022-07-26T11:04:37.691Z,965.54
2022-07-26T11:05:37.389Z,965.53
2022-07-26T11:06:37.499Z,965.55
2022-07-26T11:07:37.326Z,965.56
2022-07-26T11:08:37.316Z,965.53
2022-07-26T11:09:37.273Z,965.50
2022-07-26T11:10:37.532Z,965.53
2022-07-26T11:11:37.207Z,965.52
2022-07-26T11:12:37.340Z,965.49
2022-07-26T11:13:37.149Z,965.48
2022-07-26T11:14:37.100Z,965.41
2022-07-26T11:15:37.098Z,965.44
2022-07-26T11:16:37.365Z,965.42
2022-07-26T11:17:37.010Z,965.37
2022-07-26T11:18:37.172Z,965.36
2022-07-26T11:19:36.936Z,965.34
2022-07-26T11:20:37.185Z,965.36
2022-07-26T11:21:36.867Z,965.36
2022-07-26T11:22:37.198Z,965.35
2022-07-26T11:23:36.799Z,965.30
2022-07-26T11:24:37.008Z,965.29
2022-07-26T11:25:37.018Z,965.27
2022-07-26T11:26:36.701Z,965.28
2022-07-26T11:27:38.878Z,965.24
2022-07-26T11:28:36.655Z,965.26
2022-07-26T11:29:40.538Z,965.28
2022-07-26T11:30:36.563Z,965.25
2022-07-26T11:31:51.155Z,965.27
2022-07-26T11:32:36.695Z,965.24
2022-07-26T11:33:36.463Z,965.25
2022-07-26T11:34:36.459Z,965.30
2022-07-26T11:35:36.721Z,965.53
2022-07-26T11:36:36.364Z,965.42
2022-07-26T11:37:36.490Z,965.36
2022-07-26T11:38:36.293Z,965.32
2022-07-26T11:39:36.508Z,965.33
2022-07-26T11:40:36.366Z,965.30
2022-07-26T11:41:36.317Z,965.29
2022-07-26T11:42:36.162Z,965.28
2022-07-26T11:43:36.336Z,965.30
2022-07-26T11:44:36.110Z,965.31
2022-07-26T11:45:36.343Z,965.34
2022-07-26T11:46:36.124Z,965.29
2022-07-26T11:47:36.151Z,965.35
2022-07-26T11:48:36.015Z,965.45
2022-07-26T11:50:01.130Z,965.26
2022-07-26T11:50:35.932Z,965.25
2022-07-26T11:51:36.180Z,965.25
2022-07-26T11:52:35.845Z,965.19
2022-07-26T11:53:35.921Z,965.21
2022-07-26T11:54:35.774Z,965.20
2022-07-26T11:55:36.208Z,965.18
2022-07-26T11:56:35.721Z,965.32
2022-07-26T11:57:35.836Z,965.30
2022-07-26T11:58:35.664Z,965.41
2022-07-26T11:59:35.623Z,965.20
2022-07-26T12:00:35.838Z,965.21
2022-07-26T12:01:35.682Z,965.16
2022-07-26T12:02:35.654Z,965.15
2022-07-26T12:03:35.498Z,965.12
2022-07-26T12:04:35.576Z,965.25
2022-07-26T12:05:35.537Z,965.33
2022-07-26T12:06:35.678Z,965.36
2022-07-26T12:07:35.398Z,965.34
2022-07-26T12:08:35.648Z,965.24
2022-07-26T12:09:35.323Z,965.33
2022-07-26T12:10:35.302Z,965.16
2022-07-26T12:11:35.280Z,965.19
2022-07-26T12:12:35.520Z,965.19
2022-07-26T12:13:39.921Z,965.22
2022-07-26T12:14:35.184Z,965.19
2022-07-26T12:15:35.384Z,965.29
2022-07-26T12:16:35.213Z,965.33
2022-07-26T12:17:35.802Z,965.26
2022-07-26T12:18:35.080Z,965.31
2022-07-26T12:19:35.363Z,965.25
2022-07-26T12:20:35.031Z,965.22
2022-07-26T12:21:35.005Z,965.10
2022-07-26T12:22:34.976Z,965.09
2022-07-26T12:23:35.210Z,965.10
2022-07-26T12:24:34.922Z,965.16
2022-07-26T12:25:35.426Z,965.32
2022-07-26T12:26:34.913Z,965.22
2022-07-26T12:27:34.854Z,965.07
2022-07-26T12:28:35.013Z,965.10
2022-07-26T12:29:34.802Z,965.18
2022-07-26T12:30:35.085Z,965.22
2022-07-26T12:31:34.814Z,965.13
2022-07-26T12:32:36.933Z,965.14
2022-07-26T12:33:34.932Z,965.10
2022-07-26T12:34:34.878Z,965.09
2022-07-26T12:35:34.647Z,965.11
2022-07-26T12:36:34.900Z,965.18